Time;durP1;ratioP1;P1;durP2;ratioP2;P2;SDS_P1;SDS_P2;PMS_P1;PMS_P2;Temp;Humidity;BMP_temperature;BMP_pressure;BME280_temperature;BME280_humidity;BME280_pressure;Samples;Min_cycle;Max_cycle;Signal;HPM_P1;HPM_P2
2023/08/06 00:00:55;;;;;;;5.50;5.10;;;;;;;;;;5062833;28;20219;-82
2023/08/06 00:03:32;;;;;;;5.70;5.30;;;;;;;;;;5032443;28;20227;-81
2023/08/06 00:05:58;;;;;;;4.95;4.65;;;;;;;;;;5053260;28;20234;-83
2023/08/06 00:08:29;;;;;;;5.45;5.05;;;;;;;;;;5035288;28;20822;-84
2023/08/06 00:10:59;;;;;;;5.70;5.20;;;;;;;;;;5019286;28;20227;-84
2023/08/06 00:13:24;;;;;;;5.22;4.82;;;;;;;;;;5038066;28;20255;-83
2023/08/06 00:15:53;;;;;;;5.18;4.68;;;;;;;;;;5012320;28;20220;-84
2023/08/06 00:18:20;;;;;;;5.40;4.90;;;;;;;;;;5039224;28;20298;-85
2023/08/06 00:20:49;;;;;;;12.60;5.38;;;;;;;;;;5038131;28;20235;-84
2023/08/06 00:23:17;;;;;;;5.75;5.22;;;;;;;;;;5000182;28;20229;-85
2023/08/06 00:25:45;;;;;;;5.95;5.45;;;;;;;;;;4999860;28;20757;-85
2023/08/06 00:28:11;;;;;;;5.57;5.05;;;;;;;;;;5054821;28;20219;-86
2023/08/06 00:30:41;;;;;;;5.05;4.60;;;;;;;;;;5001479;28;20242;-86
2023/08/06 00:33:11;;;;;;;5.57;5.18;;;;;;;;;;5030184;28;20216;-85
2023/08/06 00:35:37;;;;;;;5.82;5.30;;;;;;;;;;4998104;28;20225;-85
2023/08/06 00:38:02;;;;;;;5.57;5.18;;;;;;;;;;4989579;28;20222;-85
2023/08/06 00:40:30;;;;;;;5.68;5.28;;;;;;;;;;5042301;28;20610;-85
2023/08/06 00:42:56;;;;;;;6.57;5.28;;;;;;;;;;5029382;28;20219;-85
2023/08/06 00:45:24;;;;;;;5.70;5.20;;;;;;;;;;5020472;28;20204;-84
2023/08/06 00:47:54;;;;;;;5.45;4.95;;;;;;;;;;5007931;28;20218;-85
2023/08/06 00:50:24;;;;;;;5.53;5.13;;;;;;;;;;5026535;28;20226;-85
2023/08/06 00:52:55;;;;;;;6.90;5.13;;;;;;;;;;5000435;28;20212;-85
2023/08/06 00:55:21;;;;;;;6.30;5.70;;;;;;;;;;5039989;28;20242;-85
2023/08/06 00:57:59;;;;;;;6.38;5.78;;;;;;;;;;5000681;28;20250;-85
2023/08/06 01:00:25;;;;;;;6.20;5.60;;;;;;;;;;5005076;28;20224;-85
2023/08/06 01:02:53;;;;;;;6.40;5.90;;;;;;;;;;5036299;28;20290;-86
2023/08/06 01:05:23;;;;;;;6.88;6.38;;;;;;;;;;5017039;28;20213;-86
2023/08/06 01:08:15;;;;;;;6.00;5.50;;;;;;;;;;5022407;28;20212;-86
2023/08/06 01:10:44;;;;;;;6.00;5.60;;;;;;;;;;5036786;28;20303;-85
2023/08/06 01:13:33;;;;;;;6.45;5.85;;;;;;;;;;5016807;28;20216;-85
2023/08/06 01:16:02;;;;;;;5.97;5.50;;;;;;;;;;5034916;28;20598;-86
2023/08/06 01:18:30;;;;;;;7.30;5.78;;;;;;;;;;5027577;28;20326;-83
2023/08/06 01:20:58;;;;;;;6.15;5.55;;;;;;;;;;5039753;28;20217;-86
2023/08/06 01:23:23;;;;;;;6.03;5.38;;;;;;;;;;5044164;28;20246;-85
2023/08/06 01:25:53;;;;;;;5.82;5.30;;;;;;;;;;5006058;28;20247;-85
2023/08/06 01:28:27;;;;;;;5.45;4.97;;;;;;;;;;5033411;28;20239;-85
2023/08/06 01:30:52;;;;;;;6.40;5.65;;;;;;;;;;5034314;28;20224;-84
2023/08/06 01:33:19;;;;;;;6.80;5.57;;;;;;;;;;4987015;28;20223;-83
2023/08/06 01:35:44;;;;;;;5.28;4.93;;;;;;;;;;5022352;28;20251;-85
2023/08/06 01:38:13;;;;;;;5.55;5.05;;;;;;;;;;5006907;28;20207;-85
2023/08/06 01:40:41;;;;;;;5.35;4.95;;;;;;;;;;5008032;28;20221;-83
2023/08/06 01:43:06;;;;;;;5.50;5.00;;;;;;;;;;5026983;28;20219;-85
2023/08/06 01:45:34;;;;;;;6.00;5.35;;;;;;;;;;5022353;28;20223;-83
2023/08/06 01:48:05;;;;;;;5.78;5.35;;;;;;;;;;5041907;28;20200;-84
2023/08/06 01:50:33;;;;;;;5.35;4.95;;;;;;;;;;5009912;28;20629;-83
2023/08/06 01:53:00;;;;;;;6.80;5.68;;;;;;;;;;5030949;28;20222;-84
2023/08/06 01:55:26;;;;;;;6.25;5.78;;;;;;;;;;5046552;28;20235;-84
2023/08/06 01:57:54;;;;;;;5.70;5.25;;;;;;;;;;5006019;28;20226;-85
2023/08/06 02:00:19;;;;;;;6.20;5.63;;;;;;;;;;5043650;28;20223;-85
2023/08/06 02:02:48;;;;;;;5.85;5.35;;;;;;;;;;5024373;28;20208;-83
2023/08/06 02:05:16;;;;;;;6.32;5.32;;;;;;;;;;5013565;28;20234;-83
2023/08/06 02:07:42;;;;;;;5.82;5.43;;;;;;;;;;5050164;28;20686;-83
2023/08/06 02:10:12;;;;;;;5.97;5.50;;;;;;;;;;5027176;28;20780;-85
2023/08/06 02:12:38;;;;;;;6.10;5.63;;;;;;;;;;5062257;28;20696;-83
2023/08/06 02:15:09;;;;;;;6.25;5.72;;;;;;;;;;5032406;28;20221;-83
2023/08/06 02:17:35;;;;;;;5.32;4.93;;;;;;;;;;5006944;28;20274;-84
2023/08/06 02:20:02;;;;;;;7.97;6.00;;;;;;;;;;5044787;28;21046;-83
2023/08/06 02:22:30;;;;;;;6.32;5.82;;;;;;;;;;5046262;28;20224;-85
2023/08/06 02:25:00;;;;;;;6.82;6.22;;;;;;;;;;4987345;28;20231;-84
2023/08/06 02:27:31;;;;;;;6.75;6.15;;;;;;;;;;5040067;28;20220;-85
2023/08/06 02:30:02;;;;;;;6.28;5.88;;;;;;;;;;5007177;28;20231;-85
2023/08/06 02:32:29;;;;;;;11.20;6.88;;;;;;;;;;5040472;28;20742;-84
2023/08/06 02:34:55;;;;;;;6.70;6.10;;;;;;;;;;5039588;28;20238;-86
2023/08/06 02:37:20;;;;;;;7.07;6.47;;;;;;;;;;5020075;28;20212;-84
2023/08/06 02:39:48;;;;;;;6.75;6.18;;;;;;;;;;4985423;28;20624;-83
2023/08/06 02:42:14;;;;;;;6.82;6.28;;;;;;;;;;5007587;28;20357;-85
2023/08/06 02:44:44;;;;;;;7.28;6.63;;;;;;;;;;5016889;28;20303;-84
2023/08/06 02:47:09;;;;;;;8.15;7.13;;;;;;;;;;4992549;28;20672;-84
2023/08/06 02:49:39;;;;;;;8.18;7.47;;;;;;;;;;5023136;28;20243;-83
2023/08/06 02:52:06;;;;;;;8.30;7.60;;;;;;;;;;5028607;28;20228;-83
2023/08/06 02:54:32;;;;;;;8.98;7.95;;;;;;;;;;5037464;28;20236;-83
2023/08/06 02:56:57;;;;;;;9.63;8.73;;;;;;;;;;5027058;28;20218;-84
2023/08/06 02:59:27;;;;;;;11.40;9.40;;;;;;;;;;5028546;28;20219;-85
2023/08/06 03:02:16;;;;;;;10.35;9.40;;;;;;;;;;5041013;28;20220;-84
2023/08/06 03:04:58;;;;;;;10.15;9.18;;;;;;;;;;5022883;28;20223;-85
2023/08/06 03:07:27;;;;;;;23.35;10.35;;;;;;;;;;5022097;28;20273;-85
2023/08/06 03:10:01;;;;;;;13.25;9.98;;;;;;;;;;5024071;28;20246;-83
2023/08/06 03:12:29;;;;;;;33.58;11.15;;;;;;;;;;5020096;28;20293;-83
2023/08/06 03:15:01;;;;;;;15.05;11.23;;;;;;;;;;5034253;28;20250;-85
2023/08/06 03:21:37;;;;;;;26.40;11.02;;;;;;;;;;5028081;28;20235;-84
2023/08/06 03:24:24;;;;;;;41.05;11.60;;;;;;;;;;5031022;28;20727;-83
2023/08/06 03:27:02;;;;;;;45.05;11.43;;;;;;;;;;4991603;28;20208;-85
2023/08/06 03:29:41;;;;;;;23.73;11.30;;;;;;;;;;4993966;28;20227;-84
2023/08/06 03:36:33;;;;;;;27.52;11.20;;;;;;;;;;4993394;28;20281;-83
2023/08/06 03:39:02;;;;;;;34.63;12.27;;;;;;;;;;4995638;28;20222;-83
2023/08/06 03:42:15;;;;;;;28.63;11.40;;;;;;;;;;5020529;28;20224;-84
2023/08/06 03:48:45;;;;;;;21.25;11.25;;;;;;;;;;5046362;28;20216;-82
2023/08/06 03:52:00;;;;;;;59.35;12.35;;;;;;;;;;4992110;28;20361;-84
2023/08/06 03:55:11;;;;;;;41.25;11.10;;;;;;;;;;5015950;28;20287;-82
2023/08/06 03:58:08;;;;;;;65.03;11.55;;;;;;;;;;5016012;28;20213;-82
2023/08/06 04:04:27;;;;;;;53.53;13.65;;;;;;;;;;5044166;28;20246;-83
2023/08/06 04:06:54;;;;;;;45.13;13.25;;;;;;;;;;5020525;28;20258;-84
2023/08/06 04:09:21;;;;;;;60.40;13.55;;;;;;;;;;5039721;28;20221;-84
2023/08/06 04:11:47;;;;;;;73.57;14.02;;;;;;;;;;5041872;28;20268;-83
2023/08/06 04:14:12;;;;;;;14.23;10.73;;;;;;;;;;5025537;28;20306;-84
2023/08/06 04:16:40;;;;;;;39.10;11.35;;;;;;;;;;5027847;28;20232;-82
2023/08/06 04:19:08;;;;;;;24.92;12.88;;;;;;;;;;5013139;28;20212;-82
2023/08/06 04:21:36;;;;;;;27.40;12.32;;;;;;;;;;5021140;28;20234;-84
2023/08/06 04:24:03;;;;;;;51.95;13.10;;;;;;;;;;5031946;28;20211;-82
2023/08/06 04:26:29;;;;;;;16.50;11.77;;;;;;;;;;5048195;28;20269;-83
2023/08/06 04:28:54;;;;;;;23.80;13.07;;;;;;;;;;5018112;28;20208;-83
2023/08/06 04:31:24;;;;;;;27.63;12.25;;;;;;;;;;5024451;28;20224;-83
2023/08/06 04:33:52;;;;;;;36.65;12.45;;;;;;;;;;5028802;28;20222;-84
2023/08/06 04:36:18;;;;;;;81.47;15.88;;;;;;;;;;5025802;28;20232;-83
2023/08/06 04:38:47;;;;;;;79.35;13.95;;;;;;;;;;5031400;28;20291;-83
2023/08/06 04:41:16;;;;;;;34.05;12.73;;;;;;;;;;5025226;28;20220;-84
2023/08/06 04:43:42;;;;;;;12.75;11.50;;;;;;;;;;5034073;28;20212;-82
2023/08/06 04:46:11;;;;;;;41.05;13.40;;;;;;;;;;5032042;28;20216;-82
2023/08/06 04:48:36;;;;;;;93.90;14.10;;;;;;;;;;5039698;28;20306;-83
2023/08/06 04:51:06;;;;;;;50.33;13.98;;;;;;;;;;5035183;28;20216;-83
2023/08/06 04:53:34;;;;;;;15.70;11.70;;;;;;;;;;5044616;28;20235;-83
2023/08/06 04:56:04;;;;;;;14.18;12.20;;;;;;;;;;5039415;28;20227;-84
2023/08/06 04:58:29;;;;;;;18.73;12.25;;;;;;;;;;5050488;28;20227;-84
2023/08/06 05:00:59;;;;;;;21.33;12.02;;;;;;;;;;5039315;28;20215;-83
2023/08/06 05:03:30;;;;;;;12.88;11.57;;;;;;;;;;5048051;28;20282;-83
2023/08/06 05:05:57;;;;;;;19.88;12.35;;;;;;;;;;5045852;28;20270;-83
2023/08/06 05:08:30;;;;;;;13.27;11.98;;;;;;;;;;5050257;28;20227;-83
2023/08/06 05:10:55;;;;;;;13.32;12.13;;;;;;;;;;5052616;28;20211;-83
2023/08/06 05:13:25;;;;;;;11.85;10.93;;;;;;;;;;5054127;28;20714;-82
2023/08/06 05:15:50;;;;;;;10.40;9.43;;;;;;;;;;5017686;28;20219;-83
2023/08/06 05:18:19;;;;;;;9.68;8.88;;;;;;;;;;5066299;28;20212;-84
2023/08/06 05:20:45;;;;;;;9.65;8.88;;;;;;;;;;5052779;28;20215;-83
2023/08/06 05:23:10;;;;;;;9.70;8.90;;;;;;;;;;5059651;28;20219;-84
2023/08/06 05:25:36;;;;;;;9.63;8.70;;;;;;;;;;5069609;28;20224;-83
2023/08/06 05:28:02;;;;;;;8.82;8.07;;;;;;;;;;5058854;28;20512;-83
2023/08/06 05:30:28;;;;;;;8.63;7.82;;;;;;;;;;5046988;28;20216;-82
2023/08/06 05:32:53;;;;;;;8.00;7.30;;;;;;;;;;5041469;28;20216;-83
2023/08/06 05:35:24;;;;;;;7.55;7.05;;;;;;;;;;5026639;28;20239;-84
2023/08/06 05:37:55;;;;;;;7.95;7.15;;;;;;;;;;5036666;28;20590;-83
2023/08/06 05:40:20;;;;;;;7.85;7.20;;;;;;;;;;5061774;28;20235;-82
2023/08/06 05:42:50;;;;;;;7.55;6.85;;;;;;;;;;5027060;23;20227;-75
2023/08/06 05:45:16;;;;;;;6.53;6.03;;;;;;;;;;4996880;28;20221;-76
2023/08/06 05:47:44;;;;;;;6.88;6.38;;;;;;;;;;4990954;28;20574;-76
2023/08/06 05:50:10;;;;;;;6.55;6.00;;;;;;;;;;5006279;28;20212;-76
2023/08/06 05:52:38;;;;;;;5.07;4.68;;;;;;;;;;4987490;28;20225;-75
2023/08/06 05:55:03;;;;;;;5.95;5.35;;;;;;;;;;5013849;28;20232;-75
2023/08/06 05:57:34;;;;;;;4.88;4.57;;;;;;;;;;5034266;28;20698;-75
2023/08/06 06:00:00;;;;;;;5.00;4.60;;;;;;;;;;4965856;28;20217;-74
2023/08/06 06:02:31;;;;;;;5.55;5.10;;;;;;;;;;4982437;28;20226;-75
2023/08/06 06:05:01;;;;;;;5.15;4.65;;;;;;;;;;4963177;28;20217;-74
2023/08/06 06:07:28;;;;;;;5.57;5.07;;;;;;;;;;5012352;28;20229;-75
2023/08/06 06:09:56;;;;;;;5.32;5.03;;;;;;;;;;4990217;28;20218;-75
2023/08/06 06:12:25;;;;;;;5.70;5.20;;;;;;;;;;4982868;28;20221;-75
2023/08/06 06:14:56;;;;;;;6.32;5.75;;;;;;;;;;4999727;28;20271;-75
2023/08/06 06:17:23;;;;;;;6.35;5.82;;;;;;;;;;4991538;28;20214;-74
2023/08/06 06:19:49;;;;;;;6.60;6.00;;;;;;;;;;4999249;28;20235;-75
2023/08/06 06:22:20;;;;;;;5.88;5.30;;;;;;;;;;4980249;28;20324;-75
2023/08/06 06:24:50;;;;;;;6.18;5.68;;;;;;;;;;4998135;28;20236;-75
2023/08/06 06:27:18;;;;;;;5.55;5.10;;;;;;;;;;4981876;28;20221;-75
2023/08/06 06:29:46;;;;;;;6.55;5.78;;;;;;;;;;5032703;28;20212;-75
2023/08/06 06:32:14;;;;;;;6.20;5.70;;;;;;;;;;4985987;28;20210;-75
2023/08/06 06:34:39;;;;;;;5.05;4.68;;;;;;;;;;4990523;28;20232;-75
2023/08/06 06:37:07;;;;;;;6.10;4.88;;;;;;;;;;4999665;28;20209;-76
2023/08/06 06:39:33;;;;;;;6.40;5.35;;;;;;;;;;4978412;28;20223;-75
2023/08/06 06:42:01;;;;;;;5.15;4.70;;;;;;;;;;4998234;28;20209;-76
2023/08/06 06:44:39;;;;;;;5.43;5.00;;;;;;;;;;5005598;28;20225;-77
2023/08/06 06:47:08;;;;;;;5.90;5.40;;;;;;;;;;5010298;28;20648;-75
2023/08/06 06:49:33;;;;;;;4.97;4.57;;;;;;;;;;5012536;28;20670;-75
2023/08/06 06:56:18;;;;;;;4.10;3.80;;;;;;;;;;4982942;28;20312;-76
2023/08/06 06:58:46;;;;;;;5.55;4.55;;;;;;;;;;4982281;28;20229;-76
2023/08/06 07:01:12;;;;;;;5.07;4.65;;;;;;;;;;4984442;28;20304;-77
2023/08/06 07:03:40;;;;;;;4.93;4.47;;;;;;;;;;4996779;28;20229;-77
2023/08/06 07:06:08;;;;;;;5.00;4.60;;;;;;;;;;4987366;28;20225;-76
2023/08/06 07:08:33;;;;;;;4.65;4.25;;;;;;;;;;5027265;22;20224;-76
2023/08/06 07:11:02;;;;;;;4.88;4.32;;;;;;;;;;5003461;28;20216;-78
2023/08/06 07:13:31;;;;;;;5.18;4.72;;;;;;;;;;5000068;28;20252;-77
2023/08/06 07:15:56;;;;;;;4.43;4.00;;;;;;;;;;4982612;28;20221;-78
2023/08/06 07:18:22;;;;;;;4.00;3.70;;;;;;;;;;4983998;28;20224;-78
2023/08/06 07:20:53;;;;;;;4.25;3.60;;;;;;;;;;5014037;28;20212;-77
2023/08/06 07:23:22;;;;;;;3.40;3.20;;;;;;;;;;5015175;28;20616;-76
2023/08/06 07:25:52;;;;;;;4.00;3.60;;;;;;;;;;5012581;28;20625;-77
2023/08/06 07:28:18;;;;;;;3.75;3.50;;;;;;;;;;4963295;28;20606;-77
2023/08/06 07:30:46;;;;;;;4.60;3.35;;;;;;;;;;4981446;28;20220;-77
2023/08/06 07:33:16;;;;;;;3.75;3.45;;;;;;;;;;4981488;28;20695;-77
2023/08/06 07:35:43;;;;;;;4.05;3.65;;;;;;;;;;5014697;28;20565;-76
2023/08/06 07:38:14;;;;;;;3.75;3.45;;;;;;;;;;4995787;28;20299;-76
2023/08/06 07:40:42;;;;;;;4.00;3.70;;;;;;;;;;5019095;28;20235;-76
2023/08/06 07:43:10;;;;;;;4.03;3.72;;;;;;;;;;5001416;28;20212;-76
2023/08/06 07:45:35;;;;;;;4.03;3.58;;;;;;;;;;4967435;28;20236;-76
2023/08/06 07:48:04;;;;;;;3.78;3.47;;;;;;;;;;4996250;28;20217;-77
2023/08/06 07:50:32;;;;;;;3.50;3.20;;;;;;;;;;4996082;28;20212;-76
2023/08/06 07:52:59;;;;;;;3.63;3.10;;;;;;;;;;4999222;28;20223;-77
2023/08/06 07:55:27;;;;;;;3.65;3.28;;;;;;;;;;4991768;28;20228;-77
2023/08/06 07:57:56;;;;;;;5.07;2.97;;;;;;;;;;4997917;28;20224;-76
2023/08/06 08:00:23;;;;;;;2.50;2.30;;;;;;;;;;4981927;28;20256;-77
2023/08/06 08:02:51;;;;;;;2.70;2.53;;;;;;;;;;4985387;28;20600;-77
2023/08/06 08:05:17;;;;;;;2.88;2.67;;;;;;;;;;5018010;28;20224;-79
2023/08/06 08:07:45;;;;;;;2.78;2.58;;;;;;;;;;5029004;23;20228;-87
2023/08/06 08:10:15;;;;;;;2.35;2.20;;;;;;;;;;4994290;28;20231;-86
2023/08/06 08:12:41;;;;;;;3.13;2.60;;;;;;;;;;5018182;28;20238;-84
2023/08/06 08:15:07;;;;;;;2.83;2.63;;;;;;;;;;5033207;28;20216;-84
2023/08/06 08:17:37;;;;;;;3.40;3.10;;;;;;;;;;5010662;28;20223;-83
2023/08/06 08:20:05;;;;;;;3.88;2.83;;;;;;;;;;4992257;28;20242;-83
2023/08/06 08:22:31;;;;;;;3.58;3.28;;;;;;;;;;5041909;28;20219;-84
2023/08/06 08:24:58;;;;;;;3.10;2.83;;;;;;;;;;5008863;28;20231;-86
2023/08/06 08:27:27;;;;;;;3.38;2.75;;;;;;;;;;5031468;28;20208;-83
2023/08/06 08:29:57;;;;;;;2.50;2.30;;;;;;;;;;5015860;28;20265;-83
2023/08/06 08:32:23;;;;;;;2.42;2.25;;;;;;;;;;5003245;28;20229;-83
2023/08/06 08:34:49;;;;;;;2.28;2.05;;;;;;;;;;5006042;28;20248;-83
2023/08/06 08:37:15;;;;;;;2.08;1.88;;;;;;;;;;5023004;28;20600;-83
2023/08/06 08:39:43;;;;;;;2.33;2.13;;;;;;;;;;4987563;28;20217;-84
2023/08/06 08:42:09;;;;;;;2.35;2.20;;;;;;;;;;5024195;28;20264;-85
2023/08/06 08:44:37;;;;;;;3.55;2.08;;;;;;;;;;4990843;28;20547;-85
2023/08/06 08:47:06;;;;;;;2.35;2.17;;;;;;;;;;5015277;28;20219;-83
2023/08/06 08:49:43;;;;;;;2.60;2.40;;;;;;;;;;5028853;28;20506;-83
2023/08/06 08:52:11;;;;;;;3.10;2.30;;;;;;;;;;4987966;28;20228;-82
2023/08/06 08:54:38;;;;;;;3.17;2.47;;;;;;;;;;5019929;28;20220;-80
2023/08/06 08:57:04;;;;;;;3.08;2.20;;;;;;;;;;5014493;28;20308;-83
2023/08/06 08:59:30;;;;;;;2.20;2.00;;;;;;;;;;4999619;28;20686;-81
2023/08/06 09:01:57;;;;;;;3.42;2.25;;;;;;;;;;5020697;28;20302;-82
2023/08/06 09:04:23;;;;;;;7.63;1.95;;;;;;;;;;5016511;28;20248;-80
2023/08/06 09:06:54;;;;;;;2.22;1.92;;;;;;;;;;5023209;28;20403;-82
2023/08/06 09:09:33;;;;;;;1.90;1.80;;;;;;;;;;5036632;28;20212;-82
2023/08/06 09:12:02;;;;;;;2.13;1.80;;;;;;;;;;5038564;28;20226;-82
2023/08/06 09:14:28;;;;;;;2.00;1.90;;;;;;;;;;5021858;28;20238;-79
2023/08/06 09:16:54;;;;;;;1.98;1.88;;;;;;;;;;5046979;28;20224;-83
2023/08/06 09:19:20;;;;;;;2.13;1.70;;;;;;;;;;5029826;28;20288;-81
2023/08/06 09:21:48;;;;;;;1.88;1.77;;;;;;;;;;5029509;28;20463;-80
2023/08/06 09:24:18;;;;;;;1.70;1.60;;;;;;;;;;5034369;28;20242;-80
2023/08/06 09:26:44;;;;;;;4.40;1.90;;;;;;;;;;5024967;28;20297;-79
2023/08/06 09:29:13;;;;;;;1.90;1.77;;;;;;;;;;5035381;28;20223;-79
2023/08/06 09:31:45;;;;;;;2.15;2.05;;;;;;;;;;5015507;28;20222;-81
2023/08/06 09:34:22;;;;;;;2.38;2.20;;;;;;;;;;5030961;28;20520;-79
2023/08/06 09:36:50;;;;;;;2.13;2.00;;;;;;;;;;5050613;28;20227;-78
2023/08/06 09:39:17;;;;;;;2.08;1.88;;;;;;;;;;5034391;28;20201;-82
2023/08/06 09:41:43;;;;;;;3.67;2.10;;;;;;;;;;5032626;28;20601;-84
2023/08/06 09:44:27;;;;;;;1.80;1.70;;;;;;;;;;5027077;28;20240;-82
2023/08/06 09:46:57;;;;;;;1.88;1.77;;;;;;;;;;5026618;28;20283;-83
2023/08/06 09:49:45;;;;;;;2.40;1.90;;;;;;;;;;5024438;28;20235;-78
2023/08/06 09:52:13;;;;;;;2.08;1.70;;;;;;;;;;5035284;28;20646;-82
2023/08/06 09:54:39;;;;;;;1.75;1.65;;;;;;;;;;5023864;28;20250;-80
2023/08/06 09:57:05;;;;;;;2.92;1.95;;;;;;;;;;5006386;28;20216;-84
2023/08/06 09:59:30;;;;;;;2.25;2.05;;;;;;;;;;5013780;28;20224;-81
2023/08/06 10:01:56;;;;;;;2.35;1.83;;;;;;;;;;5023350;28;20613;-81
2023/08/06 10:04:22;;;;;;;2.03;1.80;;;;;;;;;;5015238;28;20250;-79
2023/08/06 10:06:50;;;;;;;1.77;1.67;;;;;;;;;;5021834;28;20251;-80
2023/08/06 10:09:16;;;;;;;1.67;1.58;;;;;;;;;;5012221;28;20212;-80
2023/08/06 10:11:56;;;;;;;2.00;1.90;;;;;;;;;;5001623;28;20232;-83
2023/08/06 10:14:30;;;;;;;1.83;1.73;;;;;;;;;;5025322;28;20215;-82
2023/08/06 10:16:57;;;;;;;1.60;1.50;;;;;;;;;;5050093;28;20247;-81
2023/08/06 10:19:27;;;;;;;1.85;1.75;;;;;;;;;;4991724;28;20211;-81
2023/08/06 10:22:09;;;;;;;1.90;1.77;;;;;;;;;;5012946;28;20223;-82
2023/08/06 10:24:49;;;;;;;2.92;2.08;;;;;;;;;;5023204;28;20360;-83
2023/08/06 10:27:22;;;;;;;1.70;1.60;;;;;;;;;;5023743;28;20262;-84
2023/08/06 10:29:53;;;;;;;1.85;1.50;;;;;;;;;;5030335;28;20414;-83
2023/08/06 10:32:22;;;;;;;1.77;1.63;;;;;;;;;;5017259;28;20220;-78
2023/08/06 10:34:57;;;;;;;1.48;1.38;;;;;;;;;;5045756;28;20234;-83
2023/08/06 10:37:27;;;;;;;1.80;1.70;;;;;;;;;;5029413;28;20699;-85
2023/08/06 10:39:53;;;;;;;1.85;1.75;;;;;;;;;;5035008;28;20204;-83
2023/08/06 10:42:22;;;;;;;1.55;1.45;;;;;;;;;;5031865;28;20227;-79
2023/08/06 10:45:11;;;;;;;1.50;1.40;;;;;;;;;;5015666;28;20235;-86
2023/08/06 10:47:40;;;;;;;1.70;1.60;;;;;;;;;;5038352;28;20223;-83
2023/08/06 10:50:17;;;;;;;1.40;1.30;;;;;;;;;;5030412;28;20219;-84
2023/08/06 10:52:46;;;;;;;1.13;1.13;;;;;;;;;;5029685;28;20227;-82
2023/08/06 10:55:12;;;;;;;1.15;1.05;;;;;;;;;;4993887;28;20237;-87
2023/08/06 10:57:40;;;;;;;1.05;1.05;;;;;;;;;;5013412;28;20224;-81
2023/08/06 11:00:08;;;;;;;1.20;1.10;;;;;;;;;;5010861;28;20219;-82
2023/08/06 11:02:37;;;;;;;1.10;1.10;;;;;;;;;;5030695;28;20232;-83
2023/08/06 11:05:06;;;;;;;1.02;1.02;;;;;;;;;;5023381;28;20214;-85
2023/08/06 11:07:32;;;;;;;1.42;1.33;;;;;;;;;;5021110;28;20231;-85
2023/08/06 11:10:16;;;;;;;1.73;1.20;;;;;;;;;;4994073;28;20233;-84
2023/08/06 11:12:42;;;;;;;1.55;1.40;;;;;;;;;;5021316;28;20228;-84
2023/08/06 11:15:08;;;;;;;1.40;1.30;;;;;;;;;;5026627;28;20256;-84
2023/08/06 11:17:34;;;;;;;1.63;1.52;;;;;;;;;;5009225;28;20242;-85
2023/08/06 11:20:03;;;;;;;1.60;1.40;;;;;;;;;;5025258;28;20212;-81
2023/08/06 11:22:28;;;;;;;1.75;1.50;;;;;;;;;;5024010;28;20216;-84
2023/08/06 11:24:57;;;;;;;1.00;1.00;;;;;;;;;;5022657;28;20278;-79
2023/08/06 11:27:23;;;;;;;1.48;1.38;;;;;;;;;;5032672;28;20274;-83
2023/08/06 11:29:48;;;;;;;2.70;1.45;;;;;;;;;;5004442;28;20220;-83
2023/08/06 11:32:14;;;;;;;1.42;1.13;;;;;;;;;;5017190;28;20226;-80
2023/08/06 11:34:40;;;;;;;1.30;1.20;;;;;;;;;;5027905;28;20215;-82
2023/08/06 11:37:06;;;;;;;1.10;1.00;;;;;;;;;;4984962;28;20235;-80
2023/08/06 11:39:35;;;;;;;1.83;1.10;;;;;;;;;;5025290;28;20223;-80
2023/08/06 11:42:04;;;;;;;1.20;1.20;;;;;;;;;;5025594;28;20218;-83
2023/08/06 11:44:34;;;;;;;1.95;1.05;;;;;;;;;;5023939;28;20276;-79
2023/08/06 11:47:04;;;;;;;1.40;1.30;;;;;;;;;;5037685;28;20216;-84
2023/08/06 11:49:44;;;;;;;1.40;1.30;;;;;;;;;;5028803;28;20311;-81
2023/08/06 11:52:20;;;;;;;1.35;1.25;;;;;;;;;;5023428;28;20224;-81
2023/08/06 11:55:10;;;;;;;1.40;1.30;;;;;;;;;;5010484;28;20257;-83
2023/08/06 11:57:36;;;;;;;1.38;1.30;;;;;;;;;;5045681;28;20215;-79
2023/08/06 12:00:09;;;;;;;1.63;1.23;;;;;;;;;;5032531;28;20374;-82
2023/08/06 12:02:45;;;;;;;5.15;1.73;;;;;;;;;;5031359;28;20262;-81
2023/08/06 12:05:16;;;;;;;1.70;1.50;;;;;;;;;;5023467;28;20211;-82
2023/08/06 12:07:44;;;;;;;1.50;1.40;;;;;;;;;;5007956;28;20323;-80
2023/08/06 12:10:09;;;;;;;1.30;1.20;;;;;;;;;;5020688;28;20209;-84
2023/08/06 12:12:35;;;;;;;1.55;1.45;;;;;;;;;;5016783;28;20226;-84
2023/08/06 12:15:03;;;;;;;1.77;1.00;;;;;;;;;;5000421;28;20259;-81
2023/08/06 12:17:29;;;;;;;1.73;1.33;;;;;;;;;;5013930;28;20223;-82
2023/08/06 12:19:55;;;;;;;1.30;1.20;;;;;;;;;;5025235;28;20220;-83
2023/08/06 12:22:20;;;;;;;1.00;1.00;;;;;;;;;;5029673;28;20228;-85
2023/08/06 12:24:46;;;;;;;1.10;1.00;;;;;;;;;;5018798;28;20220;-81
2023/08/06 12:27:12;;;;;;;1.30;1.02;;;;;;;;;;5021314;28;20212;-83
2023/08/06 12:29:44;;;;;;;1.20;1.15;;;;;;;;;;5042493;28;20247;-82
2023/08/06 12:32:15;;;;;;;1.20;1.10;;;;;;;;;;5033067;28;20223;-83
2023/08/06 12:34:41;;;;;;;1.48;1.02;;;;;;;;;;5025108;28;20240;-81
2023/08/06 12:37:09;;;;;;;1.80;0.98;;;;;;;;;;5021167;28;20247;-81
2023/08/06 12:39:35;;;;;;;2.97;1.38;;;;;;;;;;4997905;28;20240;-80
2023/08/06 12:42:01;;;;;;;1.50;1.40;;;;;;;;;;4984419;28;20235;-82
2023/08/06 12:44:32;;;;;;;2.38;1.27;;;;;;;;;;5007344;28;20231;-81
2023/08/06 12:46:57;;;;;;;1.42;1.33;;;;;;;;;;5025312;28;20223;-81
2023/08/06 12:49:24;;;;;;;1.55;1.17;;;;;;;;;;5008732;28;20899;-81
2023/08/06 12:51:50;;;;;;;1.40;1.13;;;;;;;;;;5017700;28;20217;-82
2023/08/06 12:54:18;;;;;;;0.95;0.95;;;;;;;;;;4997534;28;20216;-82
2023/08/06 12:56:47;;;;;;;0.93;0.93;;;;;;;;;;5039343;28;20720;-80
2023/08/06 12:59:16;;;;;;;1.05;0.93;;;;;;;;;;5015705;28;20211;-81
2023/08/06 13:01:42;;;;;;;1.20;1.10;;;;;;;;;;5008825;28;20235;-80
2023/08/06 13:04:07;;;;;;;1.20;1.10;;;;;;;;;;5026032;28;20227;-82
2023/08/06 13:06:36;;;;;;;1.55;1.23;;;;;;;;;;5050560;28;20241;-79
2023/08/06 13:09:06;;;;;;;1.50;1.40;;;;;;;;;;5017747;28;20219;-83
2023/08/06 13:11:35;;;;;;;0.98;0.98;;;;;;;;;;5003226;28;20224;-80
2023/08/06 13:14:15;;;;;;;1.02;1.00;;;;;;;;;;5002013;28;20215;-83
2023/08/06 13:16:42;;;;;;;1.27;1.10;;;;;;;;;;5022237;28;20224;-82
2023/08/06 13:19:13;;;;;;;1.88;1.20;;;;;;;;;;5009057;28;20212;-83
2023/08/06 13:21:41;;;;;;;2.47;1.50;;;;;;;;;;4992200;28;20227;-83
2023/08/06 13:24:11;;;;;;;1.40;1.30;;;;;;;;;;5041845;28;20224;-83
2023/08/06 13:26:41;;;;;;;2.30;1.20;;;;;;;;;;5002439;28;20216;-83
2023/08/06 13:29:10;;;;;;;1.38;1.27;;;;;;;;;;5026791;28;20294;-84
2023/08/06 13:31:42;;;;;;;2.42;1.48;;;;;;;;;;5009115;28;20239;-84
2023/08/06 13:34:09;;;;;;;2.15;1.42;;;;;;;;;;5010111;28;20204;-82
2023/08/06 13:36:37;;;;;;;2.03;1.35;;;;;;;;;;5026750;28;20231;-81
2023/08/06 13:39:03;;;;;;;1.58;1.35;;;;;;;;;;5006366;28;20231;-79
2023/08/06 13:41:31;;;;;;;1.27;1.20;;;;;;;;;;5018756;28;20294;-82
2023/08/06 13:43:59;;;;;;;1.50;1.40;;;;;;;;;;5040601;28;20204;-83
2023/08/06 13:46:27;;;;;;;2.75;1.73;;;;;;;;;;5013315;28;20219;-86
2023/08/06 13:48:54;;;;;;;1.27;1.15;;;;;;;;;;5014788;28;20228;-81
2023/08/06 13:51:20;;;;;;;1.40;1.30;;;;;;;;;;5016440;28;20592;-80
2023/08/06 13:53:45;;;;;;;2.15;1.80;;;;;;;;;;5022703;28;20216;-81
2023/08/06 13:56:11;;;;;;;2.80;1.73;;;;;;;;;;5025844;28;20238;-82
2023/08/06 13:58:39;;;;;;;1.80;1.60;;;;;;;;;;5022733;28;20234;-82
2023/08/06 14:01:11;;;;;;;2.10;1.90;;;;;;;;;;5025260;28;20222;-78
2023/08/06 14:03:39;;;;;;;2.20;2.00;;;;;;;;;;4998628;28;20234;-83
2023/08/06 14:06:04;;;;;;;3.42;2.33;;;;;;;;;;5046795;28;20227;-83
2023/08/06 14:08:32;;;;;;;3.50;2.72;;;;;;;;;;5031405;28;20234;-82
2023/08/06 14:10:58;;;;;;;2.45;2.20;;;;;;;;;;5042152;28;20224;-81
2023/08/06 14:13:26;;;;;;;2.42;2.22;;;;;;;;;;5032306;28;20303;-83
2023/08/06 14:15:54;;;;;;;2.35;2.15;;;;;;;;;;5020608;28;20638;-82
2023/08/06 14:18:20;;;;;;;2.40;2.20;;;;;;;;;;5045513;28;20307;-82
2023/08/06 14:20:45;;;;;;;2.97;2.70;;;;;;;;;;5021138;28;20207;-85
2023/08/06 14:23:11;;;;;;;3.13;2.88;;;;;;;;;;5005914;28;20230;-82
2023/08/06 14:25:37;;;;;;;2.92;2.58;;;;;;;;;;5006114;28;20227;-85
2023/08/06 14:28:07;;;;;;;3.28;2.85;;;;;;;;;;5019561;28;20216;-83
2023/08/06 14:30:33;;;;;;;2.58;2.38;;;;;;;;;;5024734;28;20638;-84
2023/08/06 14:33:01;;;;;;;3.42;2.60;;;;;;;;;;5022148;28;20220;-83
2023/08/06 14:35:32;;;;;;;2.67;2.47;;;;;;;;;;5010719;28;20259;-82
2023/08/06 14:37:59;;;;;;;2.38;2.17;;;;;;;;;;5042902;28;20211;-85
2023/08/06 14:40:28;;;;;;;2.90;2.38;;;;;;;;;;5042066;28;20239;-82
2023/08/06 14:42:53;;;;;;;2.40;2.20;;;;;;;;;;5040700;28;20224;-82
2023/08/06 14:45:19;;;;;;;2.85;2.60;;;;;;;;;;5001600;28;20211;-83
2023/08/06 14:47:47;;;;;;;2.38;2.28;;;;;;;;;;5022398;28;20238;-83
2023/08/06 14:50:15;;;;;;;2.47;2.25;;;;;;;;;;5021523;28;20863;-87
2023/08/06 14:52:41;;;;;;;2.80;2.58;;;;;;;;;;5005696;28;20286;-85
2023/08/06 14:55:07;;;;;;;2.17;2.08;;;;;;;;;;4997817;28;20216;-85
2023/08/06 14:57:33;;;;;;;4.40;2.78;;;;;;;;;;4989227;28;20227;-80
2023/08/06 15:00:00;;;;;;;5.38;2.60;;;;;;;;;;5029403;28;20641;-83
2023/08/06 15:02:28;;;;;;;3.05;2.40;;;;;;;;;;5012142;28;20234;-82
2023/08/06 15:04:54;;;;;;;2.13;2.03;;;;;;;;;;5041812;28;20224;-80
2023/08/06 15:07:19;;;;;;;2.30;1.98;;;;;;;;;;5025315;28;20220;-82
2023/08/06 15:09:47;;;;;;;2.45;1.88;;;;;;;;;;5003755;28;20227;-84
2023/08/06 15:12:14;;;;;;;2.40;2.10;;;;;;;;;;5005094;28;20719;-84